sensor_id;sensor_type;location;lat;lon;timestamp;P1;durP1;ratioP1;P2;durP2;ratioP2
20122;SDS011;10222;50.848;4.336;2023-05-07T00:02:15;3.90;;;1.57;;
20122;SDS011;10222;50.848;4.336;2023-05-07T00:04:44;3.50;;;1.60;;
20122;SDS011;10222;50.848;4.336;2023-05-07T00:07:10;3.17;;;1.70;;
20122;SDS011;10222;50.848;4.336;2023-05-07T00:09:37;3.03;;;1.43;;
20122;SDS011;10222;50.848;4.336;2023-05-07T00:12:04;7.77;;;1.80;;
20122;SDS011;10222;50.848;4.336;2023-05-07T00:14:30;3.50;;;1.20;;
20122;SDS011;10222;50.848;4.336;2023-05-07T00:16:56;2.33;;;1.50;;
20122;SDS011;10222;50.848;4.336;2023-05-07T00:21:52;4.87;;;1.67;;
20122;SDS011;10222;50.848;4.336;2023-05-07T00:24:20;2.67;;;1.40;;
20122;SDS011;10222;50.848;4.336;2023-05-07T00:26:47;4.73;;;1.60;;
20122;SDS011;10222;50.848;4.336;2023-05-07T00:29:13;4.60;;;1.43;;
20122;SDS011;10222;50.848;4.336;2023-05-07T00:31:39;4.53;;;1.60;;
20122;SDS011;10222;50.848;4.336;2023-05-07T00:34:05;3.87;;;1.60;;
20122;SDS011;10222;50.848;4.336;2023-05-07T00:36:31;3.47;;;1.67;;
20122;SDS011;10222;50.848;4.336;2023-05-07T00:38:58;3.53;;;1.40;;
20122;SDS011;10222;50.848;4.336;2023-05-07T00:41:25;3.70;;;1.80;;
20122;SDS011;10222;50.848;4.336;2023-05-07T00:43:52;4.63;;;1.70;;
20122;SDS011;10222;50.848;4.336;2023-05-07T00:46:20;3.57;;;1.80;;
20122;SDS011;10222;50.848;4.336;2023-05-07T00:48:46;4.27;;;1.33;;
20122;SDS011;10222;50.848;4.336;2023-05-07T00:51:13;2.47;;;1.60;;
20122;SDS011;10222;50.848;4.336;2023-05-07T00:53:40;3.97;;;1.53;;
20122;SDS011;10222;50.848;4.336;2023-05-07T00:56:06;2.13;;;1.27;;
20122;SDS011;10222;50.848;4.336;2023-05-07T00:58:32;4.73;;;1.33;;
20122;SDS011;10222;50.848;4.336;2023-05-07T01:01:00;8.57;;;1.63;;
20122;SDS011;10222;50.848;4.336;2023-05-07T01:03:26;5.20;;;1.50;;
20122;SDS011;10222;50.848;4.336;2023-05-07T01:05:52;3.63;;;1.40;;
20122;SDS011;10222;50.848;4.336;2023-05-07T01:08:19;3.30;;;1.43;;
20122;SDS011;10222;50.848;4.336;2023-05-07T01:10:47;5.53;;;1.93;;
20122;SDS011;10222;50.848;4.336;2023-05-07T01:13:13;3.90;;;1.37;;
20122;SDS011;10222;50.848;4.336;2023-05-07T01:15:40;4.27;;;1.70;;
20122;SDS011;10222;50.848;4.336;2023-05-07T01:18:07;5.77;;;1.70;;
20122;SDS011;10222;50.848;4.336;2023-05-07T01:20:35;3.83;;;1.50;;
20122;SDS011;10222;50.848;4.336;2023-05-07T01:23:02;4.33;;;1.63;;
20122;SDS011;10222;50.848;4.336;2023-05-07T01:25:30;4.20;;;1.70;;
20122;SDS011;10222;50.848;4.336;2023-05-07T01:27:57;5.47;;;1.33;;
20122;SDS011;10222;50.848;4.336;2023-05-07T01:30:25;3.10;;;1.57;;
20122;SDS011;10222;50.848;4.336;2023-05-07T01:33:00;4.07;;;1.43;;
20122;SDS011;10222;50.848;4.336;2023-05-07T01:35:29;9.37;;;1.93;;
20122;SDS011;10222;50.848;4.336;2023-05-07T01:37:55;3.40;;;2.03;;
20122;SDS011;10222;50.848;4.336;2023-05-07T01:40:23;6.40;;;1.77;;
20122;SDS011;10222;50.848;4.336;2023-05-07T01:42:51;2.33;;;1.10;;
20122;SDS011;10222;50.848;4.336;2023-05-07T01:45:17;5.83;;;1.50;;
20122;SDS011;10222;50.848;4.336;2023-05-07T01:47:43;2.40;;;1.37;;
20122;SDS011;10222;50.848;4.336;2023-05-07T01:50:12;3.27;;;1.37;;
20122;SDS011;10222;50.848;4.336;2023-05-07T01:52:38;2.00;;;1.00;;
20122;SDS011;10222;50.848;4.336;2023-05-07T01:55:05;3.20;;;1.73;;
20122;SDS011;10222;50.848;4.336;2023-05-07T01:57:32;1.67;;;1.33;;
20122;SDS011;10222;50.848;4.336;2023-05-07T01:59:58;2.97;;;1.07;;
20122;SDS011;10222;50.848;4.336;2023-05-07T02:02:25;1.83;;;1.33;;
20122;SDS011;10222;50.848;4.336;2023-05-07T02:04:51;2.70;;;1.73;;
20122;SDS011;10222;50.848;4.336;2023-05-07T02:07:18;2.60;;;1.50;;
20122;SDS011;10222;50.848;4.336;2023-05-07T02:09:46;3.57;;;1.30;;
20122;SDS011;10222;50.848;4.336;2023-05-07T02:12:12;4.13;;;1.40;;
20122;SDS011;10222;50.848;4.336;2023-05-07T02:14:39;5.23;;;1.53;;
20122;SDS011;10222;50.848;4.336;2023-05-07T02:17:07;4.00;;;1.57;;
20122;SDS011;10222;50.848;4.336;2023-05-07T02:19:34;3.37;;;1.40;;
20122;SDS011;10222;50.848;4.336;2023-05-07T02:22:00;6.73;;;1.50;;
20122;SDS011;10222;50.848;4.336;2023-05-07T02:24:26;1.73;;;1.30;;
20122;SDS011;10222;50.848;4.336;2023-05-07T02:26:52;3.87;;;1.67;;
20122;SDS011;10222;50.848;4.336;2023-05-07T02:29:18;3.87;;;1.87;;
20122;SDS011;10222;50.848;4.336;2023-05-07T02:31:44;3.30;;;1.63;;
20122;SDS011;10222;50.848;4.336;2023-05-07T02:34:10;3.57;;;1.50;;
20122;SDS011;10222;50.848;4.336;2023-05-07T02:39:06;3.87;;;1.30;;
20122;SDS011;10222;50.848;4.336;2023-05-07T02:41:34;3.80;;;1.53;;
20122;SDS011;10222;50.848;4.336;2023-05-07T02:44:00;1.90;;;1.20;;
20122;SDS011;10222;50.848;4.336;2023-05-07T02:46:26;4.73;;;1.93;;
20122;SDS011;10222;50.848;4.336;2023-05-07T02:48:52;3.30;;;1.80;;
20122;SDS011;10222;50.848;4.336;2023-05-07T02:51:21;4.00;;;1.60;;
20122;SDS011;10222;50.848;4.336;2023-05-07T02:53:49;4.20;;;1.40;;
20122;SDS011;10222;50.848;4.336;2023-05-07T02:56:15;5.10;;;1.60;;
20122;SDS011;10222;50.848;4.336;2023-05-07T02:58:41;3.70;;;1.30;;
20122;SDS011;10222;50.848;4.336;2023-05-07T03:01:07;2.30;;;1.37;;
20122;SDS011;10222;50.848;4.336;2023-05-07T03:03:35;3.93;;;1.50;;
20122;SDS011;10222;50.848;4.336;2023-05-07T03:06:03;3.63;;;1.77;;
20122;SDS011;10222;50.848;4.336;2023-05-07T03:08:30;3.60;;;1.50;;
20122;SDS011;10222;50.848;4.336;2023-05-07T03:10:57;2.37;;;1.43;;
20122;SDS011;10222;50.848;4.336;2023-05-07T03:13:24;5.60;;;1.60;;
20122;SDS011;10222;50.848;4.336;2023-05-07T03:15:50;4.87;;;1.60;;
20122;SDS011;10222;50.848;4.336;2023-05-07T03:18:17;3.70;;;1.60;;
20122;SDS011;10222;50.848;4.336;2023-05-07T03:20:43;3.30;;;1.33;;
20122;SDS011;10222;50.848;4.336;2023-05-07T03:23:09;4.40;;;1.53;;
20122;SDS011;10222;50.848;4.336;2023-05-07T03:28:05;5.40;;;1.70;;
20122;SDS011;10222;50.848;4.336;2023-05-07T03:30:31;6.27;;;1.40;;
20122;SDS011;10222;50.848;4.336;2023-05-07T03:32:57;3.57;;;1.70;;
20122;SDS011;10222;50.848;4.336;2023-05-07T03:35:23;3.87;;;1.60;;
20122;SDS011;10222;50.848;4.336;2023-05-07T03:37:50;2.83;;;1.40;;
20122;SDS011;10222;50.848;4.336;2023-05-07T03:40:17;3.47;;;1.50;;
20122;SDS011;10222;50.848;4.336;2023-05-07T03:42:45;2.83;;;1.50;;
20122;SDS011;10222;50.848;4.336;2023-05-07T03:45:12;5.70;;;1.73;;
20122;SDS011;10222;50.848;4.336;2023-05-07T03:47:38;3.03;;;2.00;;
20122;SDS011;10222;50.848;4.336;2023-05-07T03:50:04;2.70;;;1.50;;
20122;SDS011;10222;50.848;4.336;2023-05-07T03:52:31;5.10;;;1.93;;
20122;SDS011;10222;50.848;4.336;2023-05-07T03:54:58;4.30;;;1.73;;
20122;SDS011;10222;50.848;4.336;2023-05-07T03:57:24;4.57;;;1.77;;
20122;SDS011;10222;50.848;4.336;2023-05-07T03:59:50;2.93;;;1.60;;
20122;SDS011;10222;50.848;4.336;2023-05-07T04:02:16;5.07;;;1.67;;
20122;SDS011;10222;50.848;4.336;2023-05-07T04:04:43;4.07;;;2.10;;
20122;SDS011;10222;50.848;4.336;2023-05-07T04:07:11;4.50;;;2.17;;
20122;SDS011;10222;50.848;4.336;2023-05-07T04:09:37;4.63;;;1.70;;
20122;SDS011;10222;50.848;4.336;2023-05-07T04:12:03;4.87;;;2.00;;
20122;SDS011;10222;50.848;4.336;2023-05-07T04:14:29;4.40;;;2.20;;
20122;SDS011;10222;50.848;4.336;2023-05-07T04:16:57;2.80;;;1.97;;
20122;SDS011;10222;50.848;4.336;2023-05-07T04:19:23;3.93;;;1.87;;
20122;SDS011;10222;50.848;4.336;2023-05-07T04:21:49;4.10;;;1.90;;
20122;SDS011;10222;50.848;4.336;2023-05-07T04:24:15;5.23;;;1.87;;
20122;SDS011;10222;50.848;4.336;2023-05-07T04:26:41;5.40;;;1.60;;
20122;SDS011;10222;50.848;4.336;2023-05-07T04:29:07;4.10;;;2.10;;
20122;SDS011;10222;50.848;4.336;2023-05-07T04:31:33;6.13;;;2.13;;
20122;SDS011;10222;50.848;4.336;2023-05-07T04:33:59;5.33;;;2.37;;
20122;SDS011;10222;50.848;4.336;2023-05-07T04:36:26;6.33;;;2.30;;
20122;SDS011;10222;50.848;4.336;2023-05-07T04:38:55;6.37;;;2.33;;
20122;SDS011;10222;50.848;4.336;2023-05-07T04:41:21;2.63;;;1.90;;
20122;SDS011;10222;50.848;4.336;2023-05-07T04:43:48;4.87;;;1.70;;
20122;SDS011;10222;50.848;4.336;2023-05-07T04:46:15;6.90;;;2.07;;
20122;SDS011;10222;50.848;4.336;2023-05-07T04:48:41;5.67;;;2.10;;
20122;SDS011;10222;50.848;4.336;2023-05-07T04:51:09;6.43;;;2.47;;
20122;SDS011;10222;50.848;4.336;2023-05-07T04:56:07;4.23;;;2.10;;
20122;SDS011;10222;50.848;4.336;2023-05-07T04:58:34;3.53;;;1.90;;
20122;SDS011;10222;50.848;4.336;2023-05-07T05:01:00;3.53;;;2.20;;
20122;SDS011;10222;50.848;4.336;2023-05-07T05:03:27;3.57;;;1.83;;
20122;SDS011;10222;50.848;4.336;2023-05-07T05:05:54;4.60;;;1.80;;
20122;SDS011;10222;50.848;4.336;2023-05-07T05:08:21;2.77;;;1.87;;
20122;SDS011;10222;50.848;4.336;2023-05-07T05:10:47;4.87;;;1.77;;
20122;SDS011;10222;50.848;4.336;2023-05-07T05:13:15;3.43;;;1.93;;
20122;SDS011;10222;50.848;4.336;2023-05-07T05:15:42;6.13;;;2.30;;
20122;SDS011;10222;50.848;4.336;2023-05-07T05:18:08;2.87;;;2.00;;
20122;SDS011;10222;50.848;4.336;2023-05-07T05:20:34;2.93;;;1.70;;
20122;SDS011;10222;50.848;4.336;2023-05-07T05:23:00;4.33;;;1.70;;
20122;SDS011;10222;50.848;4.336;2023-05-07T05:25:26;3.80;;;1.90;;
20122;SDS011;10222;50.848;4.336;2023-05-07T05:27:53;4.50;;;2.43;;
20122;SDS011;10222;50.848;4.336;2023-05-07T05:30:19;6.17;;;2.40;;
20122;SDS011;10222;50.848;4.336;2023-05-07T05:32:45;6.23;;;2.17;;
20122;SDS011;10222;50.848;4.336;2023-05-07T05:35:11;4.47;;;2.00;;
20122;SDS011;10222;50.848;4.336;2023-05-07T05:37:37;4.57;;;2.20;;
20122;SDS011;10222;50.848;4.336;2023-05-07T05:40:03;6.87;;;2.57;;
20122;SDS011;10222;50.848;4.336;2023-05-07T05:42:30;3.40;;;1.90;;
20122;SDS011;10222;50.848;4.336;2023-05-07T05:44:55;4.70;;;2.10;;
20122;SDS011;10222;50.848;4.336;2023-05-07T05:47:22;6.57;;;2.50;;
20122;SDS011;10222;50.848;4.336;2023-05-07T05:49:48;6.33;;;2.40;;
20122;SDS011;10222;50.848;4.336;2023-05-07T05:52:14;5.70;;;2.00;;
20122;SDS011;10222;50.848;4.336;2023-05-07T05:54:41;5.67;;;2.37;;
20122;SDS011;10222;50.848;4.336;2023-05-07T05:57:07;3.10;;;2.10;;
20122;SDS011;10222;50.848;4.336;2023-05-07T05:59:34;4.50;;;1.97;;
20122;SDS011;10222;50.848;4.336;2023-05-07T06:02:00;6.80;;;2.43;;
20122;SDS011;10222;50.848;4.336;2023-05-07T06:04:26;4.67;;;2.60;;
20122;SDS011;10222;50.848;4.336;2023-05-07T06:06:52;6.23;;;1.87;;
20122;SDS011;10222;50.848;4.336;2023-05-07T06:09:18;6.67;;;2.53;;
20122;SDS011;10222;50.848;4.336;2023-05-07T06:11:44;7.43;;;2.40;;
20122;SDS011;10222;50.848;4.336;2023-05-07T06:14:10;3.40;;;1.93;;
20122;SDS011;10222;50.848;4.336;2023-05-07T06:16:36;6.37;;;2.87;;
20122;SDS011;10222;50.848;4.336;2023-05-07T06:19:03;5.90;;;2.40;;
20122;SDS011;10222;50.848;4.336;2023-05-07T06:21:29;8.77;;;3.30;;
20122;SDS011;10222;50.848;4.336;2023-05-07T06:23:56;5.33;;;2.40;;
20122;SDS011;10222;50.848;4.336;2023-05-07T06:26:22;6.33;;;2.40;;
20122;SDS011;10222;50.848;4.336;2023-05-07T06:28:48;4.67;;;2.77;;
20122;SDS011;10222;50.848;4.336;2023-05-07T06:31:14;7.70;;;2.13;;
20122;SDS011;10222;50.848;4.336;2023-05-07T06:33:41;6.17;;;2.63;;
20122;SDS011;10222;50.848;4.336;2023-05-07T06:36:07;7.83;;;2.33;;
20122;SDS011;10222;50.848;4.336;2023-05-07T06:38:33;5.83;;;2.53;;
20122;SDS011;10222;50.848;4.336;2023-05-07T06:40:59;3.83;;;1.97;;
20122;SDS011;10222;50.848;4.336;2023-05-07T06:43:26;8.00;;;2.83;;
20122;SDS011;10222;50.848;4.336;2023-05-07T06:45:52;6.40;;;2.03;;
20122;SDS011;10222;50.848;4.336;2023-05-07T06:48:18;8.90;;;2.40;;
20122;SDS011;10222;50.848;4.336;2023-05-07T06:50:44;6.77;;;2.63;;
20122;SDS011;10222;50.848;4.336;2023-05-07T06:53:10;4.53;;;2.33;;
20122;SDS011;10222;50.848;4.336;2023-05-07T06:55:36;4.33;;;2.20;;
20122;SDS011;10222;50.848;4.336;2023-05-07T06:58:03;3.13;;;2.17;;
20122;SDS011;10222;50.848;4.336;2023-05-07T07:00:29;4.93;;;2.13;;
20122;SDS011;10222;50.848;4.336;2023-05-07T07:02:56;5.83;;;2.17;;
20122;SDS011;10222;50.848;4.336;2023-05-07T07:05:22;6.80;;;2.93;;
20122;SDS011;10222;50.848;4.336;2023-05-07T07:07:51;2.87;;;2.00;;
20122;SDS011;10222;50.848;4.336;2023-05-07T07:10:21;6.70;;;2.23;;
20122;SDS011;10222;50.848;4.336;2023-05-07T07:12:51;5.00;;;2.63;;
20122;SDS011;10222;50.848;4.336;2023-05-07T07:15:19;7.50;;;2.13;;
20122;SDS011;10222;50.848;4.336;2023-05-07T07:17:47;2.23;;;1.50;;
20122;SDS011;10222;50.848;4.336;2023-05-07T07:20:13;3.33;;;1.90;;
20122;SDS011;10222;50.848;4.336;2023-05-07T07:22:43;5.70;;;2.23;;
20122;SDS011;10222;50.848;4.336;2023-05-07T07:25:10;3.17;;;1.73;;
20122;SDS011;10222;50.848;4.336;2023-05-07T07:27:39;3.67;;;2.20;;
20122;SDS011;10222;50.848;4.336;2023-05-07T07:30:05;6.00;;;2.17;;
20122;SDS011;10222;50.848;4.336;2023-05-07T07:32:35;6.60;;;2.70;;
20122;SDS011;10222;50.848;4.336;2023-05-07T07:35:02;3.13;;;2.03;;
20122;SDS011;10222;50.848;4.336;2023-05-07T07:37:29;4.20;;;1.90;;
20122;SDS011;10222;50.848;4.336;2023-05-07T07:39:57;4.47;;;2.23;;
20122;SDS011;10222;50.848;4.336;2023-05-07T07:42:26;4.23;;;1.90;;
20122;SDS011;10222;50.848;4.336;2023-05-07T07:44:54;5.23;;;2.20;;
20122;SDS011;10222;50.848;4.336;2023-05-07T07:47:22;4.50;;;2.30;;
20122;SDS011;10222;50.848;4.336;2023-05-07T07:49:48;3.03;;;1.90;;
20122;SDS011;10222;50.848;4.336;2023-05-07T07:52:16;4.50;;;2.67;;
20122;SDS011;10222;50.848;4.336;2023-05-07T07:54:42;3.67;;;1.70;;
20122;SDS011;10222;50.848;4.336;2023-05-07T07:57:08;3.77;;;2.10;;
20122;SDS011;10222;50.848;4.336;2023-05-07T07:59:35;2.07;;;1.60;;
20122;SDS011;10222;50.848;4.336;2023-05-07T08:02:01;3.20;;;1.80;;
20122;SDS011;10222;50.848;4.336;2023-05-07T08:04:28;5.70;;;2.20;;
20122;SDS011;10222;50.848;4.336;2023-05-07T08:06:55;4.40;;;2.20;;
20122;SDS011;10222;50.848;4.336;2023-05-07T08:11:51;4.13;;;1.63;;
20122;SDS011;10222;50.848;4.336;2023-05-07T08:14:17;3.23;;;1.30;;
20122;SDS011;10222;50.848;4.336;2023-05-07T08:16:46;3.27;;;1.67;;
20122;SDS011;10222;50.848;4.336;2023-05-07T08:19:18;4.97;;;1.83;;
20122;SDS011;10222;50.848;4.336;2023-05-07T08:21:47;5.53;;;1.77;;
20122;SDS011;10222;50.848;4.336;2023-05-07T08:24:15;2.00;;;1.50;;
20122;SDS011;10222;50.848;4.336;2023-05-07T08:26:41;2.67;;;1.63;;
20122;SDS011;10222;50.848;4.336;2023-05-07T08:29:08;5.30;;;2.23;;
20122;SDS011;10222;50.848;4.336;2023-05-07T08:31:37;5.73;;;2.07;;
20122;SDS011;10222;50.848;4.336;2023-05-07T08:34:08;3.20;;;2.13;;
20122;SDS011;10222;50.848;4.336;2023-05-07T08:36:35;4.57;;;1.90;;
20122;SDS011;10222;50.848;4.336;2023-05-07T08:41:31;6.70;;;2.23;;
20122;SDS011;10222;50.848;4.336;2023-05-07T08:43:59;2.27;;;2.07;;
20122;SDS011;10222;50.848;4.336;2023-05-07T08:46:31;3.37;;;2.07;;
20122;SDS011;10222;50.848;4.336;2023-05-07T08:48:57;3.93;;;1.97;;
20122;SDS011;10222;50.848;4.336;2023-05-07T08:51:27;3.10;;;2.10;;
20122;SDS011;10222;50.848;4.336;2023-05-07T08:53:53;2.97;;;2.00;;
20122;SDS011;10222;50.848;4.336;2023-05-07T08:56:20;4.37;;;1.80;;
20122;SDS011;10222;50.848;4.336;2023-05-07T08:58:52;4.20;;;2.20;;
20122;SDS011;10222;50.848;4.336;2023-05-07T09:01:23;4.20;;;2.33;;
20122;SDS011;10222;50.848;4.336;2023-05-07T09:03:50;6.53;;;2.60;;
20122;SDS011;10222;50.848;4.336;2023-05-07T09:06:18;4.80;;;2.33;;
20122;SDS011;10222;50.848;4.336;2023-05-07T09:08:51;3.53;;;1.83;;
20122;SDS011;10222;50.848;4.336;2023-05-07T09:11:23;4.93;;;2.27;;
20122;SDS011;10222;50.848;4.336;2023-05-07T09:13:54;6.73;;;2.30;;
20122;SDS011;10222;50.848;4.336;2023-05-07T09:16:22;6.00;;;2.33;;
20122;SDS011;10222;50.848;4.336;2023-05-07T09:18:50;4.70;;;2.23;;
20122;SDS011;10222;50.848;4.336;2023-05-07T09:21:18;3.83;;;2.07;;
20122;SDS011;10222;50.848;4.336;2023-05-07T09:23:55;3.00;;;2.00;;
20122;SDS011;10222;50.848;4.336;2023-05-07T09:26:24;6.00;;;2.90;;
20122;SDS011;10222;50.848;4.336;2023-05-07T09:28:50;5.77;;;2.87;;
20122;SDS011;10222;50.848;4.336;2023-05-07T09:31:18;6.57;;;3.50;;
20122;SDS011;10222;50.848;4.336;2023-05-07T09:33:46;6.03;;;3.67;;
20122;SDS011;10222;50.848;4.336;2023-05-07T09:36:14;7.67;;;4.37;;
20122;SDS011;10222;50.848;4.336;2023-05-07T09:38:41;7.87;;;4.07;;
20122;SDS011;10222;50.848;4.336;2023-05-07T09:41:11;6.70;;;2.20;;
20122;SDS011;10222;50.848;4.336;2023-05-07T09:43:39;5.77;;;2.70;;
20122;SDS011;10222;50.848;4.336;2023-05-07T09:46:11;5.00;;;1.70;;
20122;SDS011;10222;50.848;4.336;2023-05-07T09:48:39;2.97;;;1.47;;
20122;SDS011;10222;50.848;4.336;2023-05-07T09:51:11;3.80;;;1.93;;
20122;SDS011;10222;50.848;4.336;2023-05-07T09:53:40;5.00;;;1.70;;
20122;SDS011;10222;50.848;4.336;2023-05-07T09:56:07;4.20;;;2.50;;
20122;SDS011;10222;50.848;4.336;2023-05-07T09:58:36;6.27;;;2.83;;
20122;SDS011;10222;50.848;4.336;2023-05-07T10:01:04;7.43;;;2.03;;
20122;SDS011;10222;50.848;4.336;2023-05-07T10:03:30;4.23;;;1.77;;
20122;SDS011;10222;50.848;4.336;2023-05-07T10:05:58;4.67;;;2.00;;
20122;SDS011;10222;50.848;4.336;2023-05-07T10:08:25;2.90;;;1.60;;
20122;SDS011;10222;50.848;4.336;2023-05-07T10:10:52;3.97;;;1.80;;
20122;SDS011;10222;50.848;4.336;2023-05-07T10:13:19;2.50;;;1.53;;
20122;SDS011;10222;50.848;4.336;2023-05-07T10:15:47;2.53;;;1.67;;
20122;SDS011;10222;50.848;4.336;2023-05-07T10:18:15;3.23;;;1.70;;
20122;SDS011;10222;50.848;4.336;2023-05-07T10:20:44;5.33;;;1.77;;
20122;SDS011;10222;50.848;4.336;2023-05-07T10:23:13;6.10;;;2.37;;
20122;SDS011;10222;50.848;4.336;2023-05-07T10:25:39;3.67;;;2.07;;
20122;SDS011;10222;50.848;4.336;2023-05-07T10:28:10;5.17;;;2.40;;
20122;SDS011;10222;50.848;4.336;2023-05-07T10:33:07;4.93;;;2.97;;
20122;SDS011;10222;50.848;4.336;2023-05-07T10:35:40;4.97;;;2.13;;
20122;SDS011;10222;50.848;4.336;2023-05-07T10:38:08;5.30;;;2.73;;
20122;SDS011;10222;50.848;4.336;2023-05-07T10:40:37;5.20;;;2.30;;
20122;SDS011;10222;50.848;4.336;2023-05-07T10:43:04;4.17;;;2.33;;
20122;SDS011;10222;50.848;4.336;2023-05-07T10:45:31;2.97;;;1.70;;
20122;SDS011;10222;50.848;4.336;2023-05-07T10:50:43;3.17;;;1.90;;
20122;SDS011;10222;50.848;4.336;2023-05-07T10:53:20;3.70;;;2.20;;
20122;SDS011;10222;50.848;4.336;2023-05-07T10:56:23;2.30;;;1.70;;
20122;SDS011;10222;50.848;4.336;2023-05-07T11:01:10;3.40;;;1.80;;
20122;SDS011;10222;50.848;4.336;2023-05-07T11:11:19;2.17;;;1.33;;
20122;SDS011;10222;50.848;4.336;2023-05-07T11:13:49;4.57;;;1.60;;
20122;SDS011;10222;50.848;4.336;2023-05-07T11:16:28;3.57;;;1.70;;
20122;SDS011;10222;50.848;4.336;2023-05-07T11:19:00;2.33;;;1.70;;
20122;SDS011;10222;50.848;4.336;2023-05-07T11:21:34;4.57;;;1.77;;
20122;SDS011;10222;50.848;4.336;2023-05-07T11:24:04;3.33;;;1.93;;
20122;SDS011;10222;50.848;4.336;2023-05-07T11:29:14;2.80;;;1.50;;
20122;SDS011;10222;50.848;4.336;2023-05-07T11:31:41;3.90;;;2.03;;
20122;SDS011;10222;50.848;4.336;2023-05-07T11:34:09;2.23;;;1.60;;
20122;SDS011;10222;50.848;4.336;2023-05-07T11:36:35;3.33;;;1.47;;
20122;SDS011;10222;50.848;4.336;2023-05-07T11:39:36;3.83;;;2.00;;
20122;SDS011;10222;50.848;4.336;2023-05-07T11:44:48;2.80;;;1.50;;
20122;SDS011;10222;50.848;4.336;2023-05-07T11:47:18;4.07;;;1.60;;
20122;SDS011;10222;50.848;4.336;2023-05-07T11:49:51;2.90;;;1.77;;
20122;SDS011;10222;50.848;4.336;2023-05-07T11:54:57;4.17;;;1.70;;
20122;SDS011;10222;50.848;4.336;2023-05-07T11:57:24;2.53;;;1.40;;
20122;SDS011;10222;50.848;4.336;2023-05-07T12:02:25;2.60;;;1.25;;
20122;SDS011;10222;50.848;4.336;2023-05-07T12:04:54;3.50;;;1.50;;
20122;SDS011;10222;50.848;4.336;2023-05-07T12:07:21;2.27;;;1.13;;
20122;SDS011;10222;50.848;4.336;2023-05-07T12:09:50;2.47;;;1.30;;
20122;SDS011;10222;50.848;4.336;2023-05-07T12:12:17;1.38;;;0.90;;
20122;SDS011;10222;50.848;4.336;2023-05-07T12:14:46;2.00;;;1.10;;
20122;SDS011;10222;50.848;4.336;2023-05-07T12:17:15;2.10;;;1.10;;
20122;SDS011;10222;50.848;4.336;2023-05-07T12:19:43;3.40;;;1.40;;
20122;SDS011;10222;50.848;4.336;2023-05-07T12:22:10;2.30;;;1.37;;
20122;SDS011;10222;50.848;4.336;2023-05-07T12:24:46;2.47;;;1.50;;
20122;SDS011;10222;50.848;4.336;2023-05-07T12:27:15;3.47;;;1.63;;
20122;SDS011;10222;50.848;4.336;2023-05-07T12:29:46;2.70;;;1.13;;
20122;SDS011;10222;50.848;4.336;2023-05-07T12:32:15;3.47;;;1.88;;
20122;SDS011;10222;50.848;4.336;2023-05-07T12:34:42;9.27;;;2.60;;
20122;SDS011;10222;50.848;4.336;2023-05-07T12:37:10;2.67;;;1.70;;
20122;SDS011;10222;50.848;4.336;2023-05-07T12:39:37;2.08;;;1.65;;
20122;SDS011;10222;50.848;4.336;2023-05-07T12:42:04;2.97;;;1.73;;
20122;SDS011;10222;50.848;4.336;2023-05-07T12:44:31;2.83;;;1.70;;
20122;SDS011;10222;50.848;4.336;2023-05-07T12:46:57;3.85;;;2.15;;
20122;SDS011;10222;50.848;4.336;2023-05-07T12:49:24;3.83;;;1.80;;
20122;SDS011;10222;50.848;4.336;2023-05-07T12:57:06;4.18;;;2.63;;
20122;SDS011;10222;50.848;4.336;2023-05-07T12:59:39;3.97;;;2.08;;
20122;SDS011;10222;50.848;4.336;2023-05-07T13:02:05;2.17;;;1.75;;
20122;SDS011;10222;50.848;4.336;2023-05-07T13:04:34;2.55;;;2.22;;
20122;SDS011;10222;50.848;4.336;2023-05-07T13:07:03;5.15;;;2.65;;
20122;SDS011;10222;50.848;4.336;2023-05-07T13:09:30;3.87;;;2.60;;
20122;SDS011;10222;50.848;4.336;2023-05-07T13:11:58;4.45;;;2.42;;
20122;SDS011;10222;50.848;4.336;2023-05-07T13:14:27;4.85;;;2.10;;
20122;SDS011;10222;50.848;4.336;2023-05-07T13:16:55;3.20;;;1.90;;
20122;SDS011;10222;50.848;4.336;2023-05-07T13:19:23;2.88;;;2.22;;
20122;SDS011;10222;50.848;4.336;2023-05-07T13:21:52;4.88;;;2.30;;
20122;SDS011;10222;50.848;4.336;2023-05-07T13:24:20;3.90;;;2.50;;
20122;SDS011;10222;50.848;4.336;2023-05-07T13:26:47;4.20;;;2.75;;
20122;SDS011;10222;50.848;4.336;2023-05-07T13:29:15;3.53;;;2.58;;
20122;SDS011;10222;50.848;4.336;2023-05-07T13:31:44;4.97;;;3.33;;
20122;SDS011;10222;50.848;4.336;2023-05-07T13:34:10;5.25;;;3.78;;
20122;SDS011;10222;50.848;4.336;2023-05-07T13:36:37;5.07;;;3.38;;
20122;SDS011;10222;50.848;4.336;2023-05-07T13:39:05;5.10;;;3.20;;
20122;SDS011;10222;50.848;4.336;2023-05-07T13:41:32;6.63;;;4.00;;
20122;SDS011;10222;50.848;4.336;2023-05-07T13:43:59;5.95;;;3.92;;
20122;SDS011;10222;50.848;4.336;2023-05-07T13:46:27;3.90;;;3.38;;
20122;SDS011;10222;50.848;4.336;2023-05-07T13:48:54;5.10;;;3.97;;
20122;SDS011;10222;50.848;4.336;2023-05-07T13:51:25;5.38;;;3.92;;
20122;SDS011;10222;50.848;4.336;2023-05-07T13:53:52;5.90;;;4.03;;
20122;SDS011;10222;50.848;4.336;2023-05-07T13:56:19;4.88;;;3.90;;
20122;SDS011;10222;50.848;4.336;2023-05-07T13:58:46;5.90;;;3.83;;
20122;SDS011;10222;50.848;4.336;2023-05-07T14:03:43;6.07;;;4.70;;
20122;SDS011;10222;50.848;4.336;2023-05-07T14:06:15;6.80;;;4.93;;
20122;SDS011;10222;50.848;4.336;2023-05-07T14:08:43;6.82;;;4.13;;
20122;SDS011;10222;50.848;4.336;2023-05-07T14:11:10;7.07;;;4.63;;
20122;SDS011;10222;50.848;4.336;2023-05-07T14:13:36;6.37;;;4.97;;
20122;SDS011;10222;50.848;4.336;2023-05-07T14:16:04;5.83;;;4.60;;
20122;SDS011;10222;50.848;4.336;2023-05-07T14:18:34;7.47;;;5.53;;
20122;SDS011;10222;50.848;4.336;2023-05-07T14:23:37;6.07;;;4.70;;
20122;SDS011;10222;50.848;4.336;2023-05-07T14:26:04;6.13;;;4.40;;
20122;SDS011;10222;50.848;4.336;2023-05-07T14:31:00;7.85;;;5.75;;
20122;SDS011;10222;50.848;4.336;2023-05-07T14:33:29;6.53;;;4.40;;
20122;SDS011;10222;50.848;4.336;2023-05-07T14:35:58;8.60;;;4.75;;
20122;SDS011;10222;50.848;4.336;2023-05-07T14:38:25;5.88;;;4.43;;
20122;SDS011;10222;50.848;4.336;2023-05-07T14:40:53;6.45;;;4.65;;
20122;SDS011;10222;50.848;4.336;2023-05-07T14:43:22;6.93;;;4.43;;
20122;SDS011;10222;50.848;4.336;2023-05-07T14:45:50;7.70;;;4.57;;
20122;SDS011;10222;50.848;4.336;2023-05-07T14:48:22;6.50;;;4.00;;
20122;SDS011;10222;50.848;4.336;2023-05-07T14:50:48;6.50;;;3.87;;
20122;SDS011;10222;50.848;4.336;2023-05-07T14:55:43;7.93;;;4.37;;
20122;SDS011;10222;50.848;4.336;2023-05-07T15:00:41;5.00;;;3.47;;
20122;SDS011;10222;50.848;4.336;2023-05-07T15:05:39;5.20;;;3.43;;
20122;SDS011;10222;50.848;4.336;2023-05-07T15:08:06;3.83;;;2.85;;
20122;SDS011;10222;50.848;4.336;2023-05-07T15:10:36;5.27;;;3.27;;
20122;SDS011;10222;50.848;4.336;2023-05-07T15:13:07;5.10;;;3.47;;
20122;SDS011;10222;50.848;4.336;2023-05-07T15:15:34;5.93;;;3.53;;
20122;SDS011;10222;50.848;4.336;2023-05-07T15:18:06;4.53;;;2.53;;
20122;SDS011;10222;50.848;4.336;2023-05-07T15:20:33;3.07;;;2.33;;
20122;SDS011;10222;50.848;4.336;2023-05-07T15:23:01;4.77;;;2.90;;
20122;SDS011;10222;50.848;4.336;2023-05-07T15:25:28;5.93;;;3.00;;
20122;SDS011;10222;50.848;4.336;2023-05-07T15:27:57;6.30;;;3.47;;
20122;SDS011;10222;50.848;4.336;2023-05-07T15:30:25;6.13;;;3.63;;
20122;SDS011;10222;50.848;4.336;2023-05-07T15:32:52;4.37;;;3.33;;
20122;SDS011;10222;50.848;4.336;2023-05-07T15:35:18;4.17;;;3.20;;
20122;SDS011;10222;50.848;4.336;2023-05-07T15:37:49;5.50;;;2.97;;
20122;SDS011;10222;50.848;4.336;2023-05-07T15:40:17;7.60;;;3.63;;
20122;SDS011;10222;50.848;4.336;2023-05-07T15:45:15;6.47;;;3.90;;
20122;SDS011;10222;50.848;4.336;2023-05-07T15:47:49;8.32;;;5.40;;
20122;SDS011;10222;50.848;4.336;2023-05-07T15:50:21;5.40;;;3.27;;
20122;SDS011;10222;50.848;4.336;2023-05-07T15:52:50;7.27;;;3.13;;
20122;SDS011;10222;50.848;4.336;2023-05-07T15:55:17;6.97;;;3.40;;